createdAt,value
2018-05-12T00:00:02.008Z,97938.74
2018-05-12T00:01:06.584Z,97937.88
2018-05-12T00:02:11.092Z,97939.73
2018-05-12T00:03:15.595Z,97932.28
2018-05-12T00:04:20.129Z,97942.53
2018-05-12T00:05:24.944Z,97938.03
2018-05-12T00:06:31.090Z,97939.45
2018-05-12T00:07:35.573Z,97939.95
2018-05-12T00:08:40.036Z,97941.97
2018-05-12T00:09:44.535Z,97947.92
2018-05-12T00:10:51.102Z,97952.09
2018-05-12T00:11:55.583Z,97946.97
2018-05-12T00:13:00.473Z,97954.81
2018-05-12T00:14:04.937Z,97950.45
2018-05-12T00:15:09.399Z,97953.22
2018-05-12T00:16:13.890Z,97953.51
2018-05-12T00:17:18.339Z,97956.33
2018-05-12T00:18:23.894Z,97953.09
2018-05-12T00:19:29.172Z,97952.19
2018-05-12T00:20:33.961Z,97952.23
2018-05-12T00:21:38.414Z,97951.27
2018-05-12T00:22:42.916Z,97953.48
2018-05-12T00:23:47.375Z,97950.21
2018-05-12T00:24:51.912Z,97950.67
2018-05-12T00:25:57.250Z,97947.50
2018-05-12T00:27:01.743Z,97950.25
2018-05-12T00:28:06.218Z,97947.57
2018-05-12T00:29:10.692Z,97955.59
2018-05-12T00:30:15.381Z,97959.43
2018-05-12T00:31:20.030Z,97950.39
2018-05-12T00:32:25.026Z,97949.09
2018-05-12T00:33:29.576Z,97948.23
2018-05-12T00:34:34.126Z,97949.03
2018-05-12T00:35:38.729Z,97946.20
2018-05-12T00:36:43.320Z,97942.86
2018-05-12T00:37:47.990Z,97940.83
2018-05-12T00:38:52.905Z,97941.97
2018-05-12T00:39:57.454Z,97948.23
2018-05-12T00:41:02.078Z,97951.61
2018-05-12T00:42:06.678Z,97946.06
2018-05-12T00:43:11.326Z,97947.12
2018-05-12T00:44:15.900Z,97945.00
2018-05-12T00:45:20.828Z,97940.61
2018-05-12T00:46:25.401Z,97934.50
2018-05-12T00:47:29.966Z,97940.41
2018-05-12T00:48:34.646Z,97941.72
2018-05-12T00:49:39.210Z,97945.05
2018-05-12T00:50:43.770Z,97935.66
2018-05-12T00:51:48.759Z,97936.12
2018-05-12T00:52:53.350Z,97939.75
2018-05-12T00:53:58.494Z,97935.20
2018-05-12T00:55:03.731Z,97940.61
2018-05-12T00:56:08.289Z,97930.41
2018-05-12T00:57:12.816Z,97938.91
2018-05-12T00:58:17.749Z,97934.36
2018-05-12T00:59:22.352Z,97936.79
2018-05-12T01:00:27.732Z,97936.57
2018-05-12T01:01:32.346Z,97939.30
2018-05-12T01:02:37.010Z,97940.76
2018-05-12T01:03:41.639Z,97938.03
2018-05-12T01:04:46.610Z,97936.52
2018-05-12T01:05:51.189Z,97937.55
2018-05-12T01:06:55.774Z,97934.95
2018-05-12T01:08:00.242Z,97931.17
2018-05-12T01:09:04.921Z,97934.22
2018-05-12T01:10:09.422Z,97933.69
2018-05-12T01:11:14.255Z,97928.05
2018-05-12T01:12:18.749Z,97929.73
2018-05-12T01:13:23.262Z,97928.30
2018-05-12T01:14:27.825Z,97928.20
2018-05-12T01:15:32.342Z,97926.80
2018-05-12T01:16:36.845Z,97925.98
2018-05-12T01:17:41.722Z,97926.38
2018-05-12T01:18:46.189Z,97924.83
2018-05-12T01:19:50.667Z,97924.62
2018-05-12T01:20:55.720Z,97919.72
2018-05-12T01:22:00.733Z,97919.89
2018-05-12T01:23:06.379Z,97920.67
2018-05-12T01:24:11.200Z,97916.55
2018-05-12T01:25:15.661Z,97914.00
2018-05-12T01:26:20.148Z,97913.36
2018-05-12T01:27:25.850Z,97911.77
2018-05-12T01:28:30.329Z,97911.72
2018-05-12T01:29:34.813Z,97912.67
2018-05-12T01:30:39.917Z,97908.34
2018-05-12T01:31:44.369Z,97916.58
2018-05-12T01:32:48.856Z,97915.66
2018-05-12T01:33:53.418Z,97918.39
2018-05-12T01:34:58.241Z,97917.55
2018-05-12T01:36:02.799Z,97915.11
2018-05-12T01:37:18.388Z,97913.32
2018-05-12T01:38:23.010Z,97916.41
2018-05-12T01:39:28.726Z,97920.61
2018-05-12T01:40:33.802Z,97914.81
2018-05-12T01:41:39.918Z,97922.25
2018-05-12T01:42:44.465Z,97918.25
2018-05-12T01:44:04.978Z,97923.20
2018-05-12T01:45:09.644Z,97915.00
2018-05-12T01:46:14.715Z,97922.60
2018-05-12T01:47:19.231Z,97915.75
2018-05-12T01:48:23.789Z,97918.11
2018-05-12T01:49:28.693Z,97916.32
2018-05-12T01:50:33.562Z,97915.17
2018-05-12T01:51:38.116Z,97914.42
2018-05-12T01:52:42.754Z,97915.33
2018-05-12T01:53:47.301Z,97925.16
2018-05-12T01:54:51.894Z,97919.09
2018-05-12T01:55:56.425Z,97922.80
2018-05-12T01:57:00.941Z,97922.75
2018-05-12T01:58:05.569Z,97915.83
2018-05-12T01:59:10.089Z,97923.50
2018-05-12T02:00:14.633Z,97921.73
2018-05-12T02:01:19.200Z,97917.95
2018-05-12T02:02:23.727Z,97915.91
2018-05-12T02:03:28.826Z,97917.32
2018-05-12T02:04:33.447Z,97915.70
2018-05-12T02:05:39.333Z,97919.58
2018-05-12T02:06:43.958Z,97912.55
2018-05-12T02:07:48.535Z,97915.20
2018-05-12T02:08:53.487Z,97913.59
2018-05-12T02:09:58.489Z,97917.20
2018-05-12T02:11:03.133Z,97918.00
2018-05-12T02:12:07.731Z,97916.50
2018-05-12T02:13:13.629Z,97915.36
2018-05-12T02:14:18.154Z,97914.55
2018-05-12T02:15:22.733Z,97919.32
2018-05-12T02:16:27.807Z,97914.77
2018-05-12T02:17:32.372Z,97919.72
2018-05-12T02:18:36.917Z,97915.64
2018-05-12T02:19:41.447Z,97916.95
2018-05-12T02:20:46.010Z,97920.13
2018-05-12T02:21:50.542Z,97919.61
2018-05-12T02:22:55.471Z,97924.65
2018-05-12T02:24:00.038Z,97927.14
2018-05-12T02:25:04.613Z,97923.51
2018-05-12T02:26:09.189Z,97925.55
2018-05-12T02:27:13.758Z,97926.79
2018-05-12T02:28:18.318Z,97929.36
2018-05-12T02:29:23.341Z,97927.02
2018-05-12T02:30:28.015Z,97928.16
2018-05-12T02:31:32.639Z,97926.33
2018-05-12T02:32:37.248Z,97930.47
2018-05-12T02:33:41.774Z,97923.50
2018-05-12T02:34:46.324Z,97923.30
2018-05-12T02:35:51.285Z,97918.00
2018-05-12T02:36:55.831Z,97918.92
2018-05-12T02:38:00.469Z,97920.53
2018-05-12T02:39:05.622Z,97919.87
2018-05-12T02:40:10.158Z,97920.05
2018-05-12T02:41:14.733Z,97913.23
2018-05-12T02:42:19.748Z,97913.02
2018-05-12T02:43:24.291Z,97911.54
2018-05-12T02:44:28.854Z,97916.89
2018-05-12T02:45:33.398Z,97915.63
2018-05-12T02:46:37.952Z,97911.41
2018-05-12T02:47:42.482Z,97909.14
2018-05-12T02:48:47.440Z,97906.63
2018-05-12T02:49:51.993Z,97909.14
2018-05-12T02:50:56.573Z,97908.90
2018-05-12T02:52:01.137Z,97908.55
2018-05-12T02:53:05.710Z,97904.25
2018-05-12T02:54:10.252Z,97908.50
2018-05-12T02:55:15.252Z,97902.06
2018-05-12T02:56:20.890Z,97903.30
2018-05-12T02:57:25.416Z,97903.44
2018-05-12T02:58:29.970Z,97904.72
2018-05-12T02:59:34.675Z,97904.22
2018-05-12T03:00:39.215Z,97909.03
2018-05-12T03:01:44.028Z,97905.98
2018-05-12T03:02:48.528Z,97903.91
2018-05-12T03:03:53.018Z,97903.31
2018-05-12T03:04:57.517Z,97900.28
2018-05-12T03:06:02.002Z,97899.53
2018-05-12T03:07:06.481Z,97898.44
2018-05-12T03:08:11.385Z,97896.55
2018-05-12T03:09:18.727Z,97898.72
2018-05-12T03:10:25.848Z,97902.62
2018-05-12T03:11:30.923Z,97900.80
2018-05-12T03:12:35.398Z,97894.77
2018-05-12T03:13:39.881Z,97903.91
2018-05-12T03:14:44.734Z,97907.19
2018-05-12T03:15:49.188Z,97897.42
2018-05-12T03:16:53.646Z,97901.75
2018-05-12T03:17:58.482Z,97906.62
2018-05-12T03:19:02.984Z,97901.69
2018-05-12T03:20:08.300Z,97902.19
2018-05-12T03:21:13.511Z,97897.02
2018-05-12T03:22:18.023Z,97897.91
2018-05-12T03:23:22.502Z,97894.25
2018-05-12T03:24:27.060Z,97894.70
2018-05-12T03:25:31.566Z,97897.77
2018-05-12T03:26:36.135Z,97895.95
2018-05-12T03:27:40.952Z,97900.85
2018-05-12T03:28:45.455Z,97895.20
2018-05-12T03:29:49.960Z,97892.38
2018-05-12T03:30:54.422Z,97896.72
2018-05-12T03:31:59.013Z,97896.14
2018-05-12T03:33:03.572Z,97896.86
2018-05-12T03:34:08.541Z,97892.02
2018-05-12T03:35:13.107Z,97899.13
2018-05-12T03:36:18.016Z,97895.24
2018-05-12T03:37:22.906Z,97892.55
2018-05-12T03:38:27.824Z,97893.23
2018-05-12T03:39:32.300Z,97891.61
2018-05-12T03:40:38.179Z,97901.81
2018-05-12T03:41:42.645Z,97892.81
2018-05-12T03:42:47.118Z,97895.62
2018-05-12T03:43:51.590Z,97895.86
2018-05-12T03:44:56.913Z,97897.22
2018-05-12T03:46:01.389Z,97894.25
2018-05-12T03:47:06.307Z,97898.25
2018-05-12T03:48:10.767Z,97892.81
2018-05-12T03:49:15.404Z,97891.96
2018-05-12T03:50:19.874Z,97897.42
2018-05-12T03:51:24.579Z,97897.41
2018-05-12T03:52:29.924Z,97899.66
2018-05-12T03:53:34.731Z,97899.39
2018-05-12T03:54:39.228Z,97898.48
2018-05-12T03:55:43.822Z,97904.05
2018-05-12T03:56:48.290Z,97898.56
2018-05-12T03:57:52.729Z,97906.23
2018-05-12T03:58:57.264Z,97909.81
2018-05-12T04:00:02.403Z,97907.77
2018-05-12T04:01:06.892Z,97908.09
2018-05-12T04:02:11.837Z,97911.59
2018-05-12T04:03:16.322Z,97905.66
2018-05-12T04:04:25.127Z,97909.75
2018-05-12T04:07:35.879Z,97909.03
2018-05-12T04:10:46.450Z,97908.95
2018-05-12T04:11:57.207Z,97915.16
2018-05-12T04:13:01.767Z,97916.02
2018-05-12T04:14:06.297Z,97919.97
2018-05-12T04:15:10.859Z,97921.57
2018-05-12T04:16:15.432Z,97913.02
2018-05-12T04:17:20.004Z,97917.16
2018-05-12T04:18:24.982Z,97918.65
2018-05-12T04:19:29.623Z,97921.40
2018-05-12T04:20:34.824Z,97920.23
2018-05-12T04:21:39.418Z,97920.87
2018-05-12T04:22:44.137Z,97922.25
2018-05-12T04:23:48.812Z,97924.80
2018-05-12T04:24:54.002Z,97922.08
2018-05-12T04:25:59.701Z,97926.80
2018-05-12T04:27:04.366Z,97920.83
2018-05-12T04:28:08.949Z,97918.03
2018-05-12T04:29:13.678Z,97921.31
2018-05-12T04:30:18.531Z,97916.56
2018-05-12T04:31:23.298Z,97920.75
2018-05-12T04:32:27.827Z,97917.53
2018-05-12T04:33:32.362Z,97920.09
2018-05-12T04:34:36.898Z,97924.18
2018-05-12T04:35:42.151Z,97922.70
2018-05-12T04:36:46.752Z,97924.01
2018-05-12T04:37:52.799Z,97925.53
2018-05-12T04:38:57.707Z,97926.15
2018-05-12T04:40:02.237Z,97923.75
2018-05-12T04:41:06.789Z,97927.81
2018-05-12T04:42:11.574Z,97926.88
2018-05-12T04:43:16.175Z,97924.67
2018-05-12T04:44:21.315Z,97926.37
2018-05-12T04:45:25.991Z,97928.51
2018-05-12T04:46:32.398Z,97924.28
2018-05-12T04:47:36.972Z,97928.11
2018-05-12T04:48:41.564Z,97927.64
2018-05-12T04:49:46.142Z,97924.00
2018-05-12T04:50:51.539Z,97927.45
2018-05-12T04:51:56.233Z,97924.15
2018-05-12T04:53:00.789Z,97927.28
2018-05-12T04:54:05.539Z,97927.30
2018-05-12T04:55:10.122Z,97926.64
2018-05-12T04:56:14.680Z,97922.86
2018-05-12T04:57:19.661Z,97928.36
2018-05-12T04:58:24.230Z,97927.08
2018-05-12T04:59:28.817Z,97921.34
2018-05-12T05:00:33.418Z,97924.59
2018-05-12T05:01:37.988Z,97927.39
2018-05-12T05:02:42.509Z,97928.25
2018-05-12T05:03:47.479Z,97927.34
2018-05-12T05:04:51.976Z,97923.75
2018-05-12T05:05:56.597Z,97926.58
2018-05-12T05:07:01.036Z,97927.91
2018-05-12T05:08:05.508Z,97927.23
2018-05-12T05:09:09.970Z,97932.97
2018-05-12T05:10:14.839Z,97929.00
2018-05-12T05:11:19.674Z,97929.16
2018-05-12T05:12:24.239Z,97928.64
2018-05-12T05:13:28.679Z,97925.28
2018-05-12T05:14:33.643Z,97923.67
2018-05-12T05:15:38.467Z,97924.08
2018-05-12T05:16:43.474Z,97922.45
2018-05-12T05:17:48.271Z,97921.33
2018-05-12T05:18:52.789Z,97919.05
2018-05-12T05:19:57.280Z,97922.44
2018-05-12T05:21:01.919Z,97916.28
2018-05-12T05:22:06.930Z,97919.53
2018-05-12T05:23:11.871Z,97917.56
2018-05-12T05:24:16.380Z,97917.87
2018-05-12T05:25:20.869Z,97914.89
2018-05-12T05:26:25.363Z,97918.27
2018-05-12T05:27:29.819Z,97916.85
2018-05-12T05:28:34.361Z,97922.00
2018-05-12T05:29:39.111Z,97912.22
2018-05-12T05:30:43.625Z,97915.90
2018-05-12T05:31:48.124Z,97919.48
2018-05-12T05:32:53.275Z,97917.67
2018-05-12T05:33:58.547Z,97917.16
2018-05-12T05:35:03.095Z,97917.56
2018-05-12T05:36:08.058Z,97923.30
2018-05-12T05:37:12.532Z,97918.95
2018-05-12T05:38:17.015Z,97927.13
2018-05-12T05:39:21.448Z,97925.92
2018-05-12T05:40:26.965Z,97921.73
2018-05-12T05:41:31.525Z,97918.95
2018-05-12T05:42:36.316Z,97920.52
2018-05-12T05:43:40.841Z,97921.98
2018-05-12T05:44:45.343Z,97917.24
2018-05-12T05:45:49.834Z,97921.20
2018-05-12T05:46:54.314Z,97921.45
2018-05-12T05:47:58.776Z,97924.48
2018-05-12T05:49:03.708Z,97926.70
2018-05-12T05:50:08.320Z,97929.27
2018-05-12T05:51:12.788Z,97922.75
2018-05-12T05:52:17.265Z,97927.01
2018-05-12T05:53:21.746Z,97915.56
2018-05-12T05:54:26.349Z,97922.69
2018-05-12T05:55:31.284Z,97923.56
2018-05-12T05:56:35.737Z,97922.63
2018-05-12T05:57:40.259Z,97926.16
2018-05-12T05:58:44.839Z,97926.09
2018-05-12T05:59:49.501Z,97926.46
2018-05-12T06:00:54.084Z,97926.89
2018-05-12T06:01:58.969Z,97929.02
2018-05-12T06:03:03.585Z,97929.58
2018-05-12T06:04:08.464Z,97928.23
2018-05-12T06:05:13.048Z,97925.45
2018-05-12T06:06:17.609Z,97930.98
2018-05-12T06:07:22.171Z,97929.89
2018-05-12T06:08:27.057Z,97930.09
2018-05-12T06:09:31.538Z,97925.77
2018-05-12T06:10:36.014Z,97928.87
2018-05-12T06:11:40.601Z,97925.13
2018-05-12T06:12:45.108Z,97927.73
2018-05-12T06:13:49.576Z,97927.61
2018-05-12T06:14:56.751Z,97924.28
2018-05-12T06:16:01.266Z,97924.00
2018-05-12T06:17:05.731Z,97923.13
2018-05-12T06:18:10.341Z,97925.93
2018-05-12T06:19:16.058Z,97927.37
2018-05-12T06:20:20.610Z,97925.26
2018-05-12T06:21:25.610Z,97925.55
2018-05-12T06:22:31.343Z,97928.24
2018-05-12T06:23:36.014Z,97926.19
2018-05-12T06:24:40.991Z,97918.98
2018-05-12T06:25:48.543Z,97924.56
2018-05-12T06:26:53.398Z,97920.58
2018-05-12T06:27:58.447Z,97921.72
2018-05-12T06:29:02.986Z,97923.77
2018-05-12T06:30:07.459Z,97918.81
2018-05-12T06:31:12.024Z,97927.03
2018-05-12T06:32:16.477Z,97921.00
2018-05-12T06:33:20.953Z,97925.48
2018-05-12T06:34:25.891Z,97923.10
2018-05-12T06:35:30.394Z,97920.35
2018-05-12T06:36:34.891Z,97915.48
2018-05-12T06:37:39.447Z,97922.33
2018-05-12T06:38:43.976Z,97920.16
2018-05-12T06:39:48.487Z,97921.72
2018-05-12T06:40:53.417Z,97923.97
2018-05-12T06:41:58.173Z,97922.60
2018-05-12T06:43:02.662Z,97923.11
2018-05-12T06:44:07.190Z,97924.44
2018-05-12T06:45:11.693Z,97923.34
2018-05-12T06:46:16.281Z,97920.68
2018-05-12T06:47:21.206Z,97914.64
2018-05-12T06:48:26.273Z,97922.84
2018-05-12T06:49:32.124Z,97918.44
2018-05-12T06:50:36.627Z,97919.29
2018-05-12T06:51:41.208Z,97918.97
2018-05-12T06:52:45.809Z,97921.56
2018-05-12T06:53:50.876Z,97922.68
2018-05-12T06:54:55.450Z,97917.63
2018-05-12T06:55:59.957Z,97918.52
2018-05-12T06:57:04.515Z,97909.08
2018-05-12T06:58:09.000Z,97912.69
2018-05-12T06:59:13.550Z,97917.20
2018-05-12T07:00:18.069Z,97919.13
2018-05-12T07:01:22.623Z,97916.08
2018-05-12T07:02:27.151Z,97913.90
2018-05-12T07:03:31.734Z,97916.29
2018-05-12T07:04:36.242Z,97912.73
2018-05-12T07:05:41.085Z,97918.27
2018-05-12T07:06:45.589Z,97920.63
2018-05-12T07:07:50.101Z,97915.78
2018-05-12T07:08:54.617Z,97917.03
2018-05-12T07:09:59.138Z,97914.41
2018-05-12T07:11:04.049Z,97912.28
2018-05-12T07:12:08.864Z,97914.45
2018-05-12T07:13:13.379Z,97918.34
2018-05-12T07:14:17.962Z,97914.98
2018-05-12T07:15:22.455Z,97914.02
2018-05-12T07:16:26.948Z,97915.25
2018-05-12T07:17:31.870Z,97909.96
2018-05-12T07:18:36.716Z,97916.12
2018-05-12T07:19:41.230Z,97916.91
2018-05-12T07:20:46.634Z,97917.20
2018-05-12T07:21:51.136Z,97915.95
2018-05-12T07:22:55.649Z,97916.35
2018-05-12T07:24:00.195Z,97917.12
2018-05-12T07:25:05.026Z,97918.19
2018-05-12T07:26:09.556Z,97917.48
2018-05-12T07:27:14.051Z,97919.17
2018-05-12T07:28:18.568Z,97912.95
2018-05-12T07:29:23.066Z,97917.37
2018-05-12T07:30:27.632Z,97911.11
2018-05-12T07:31:32.455Z,97916.36
2018-05-12T07:32:37.149Z,97918.40
2018-05-12T07:33:41.872Z,97917.39
2018-05-12T07:34:46.585Z,97916.75
2018-05-12T07:35:51.187Z,97922.27
2018-05-12T07:36:55.699Z,97918.64
2018-05-12T07:38:00.560Z,97909.41
2018-05-12T07:39:05.348Z,97912.20
2018-05-12T07:40:09.912Z,97908.42
2018-05-12T07:41:14.366Z,97902.99
2018-05-12T07:42:18.915Z,97905.86
2018-05-12T07:43:23.739Z,97905.50
2018-05-12T07:44:28.680Z,97902.93
2018-05-12T07:45:33.602Z,97905.34
2018-05-12T07:46:38.119Z,97904.55
2018-05-12T07:47:42.644Z,97902.06
2018-05-12T07:48:47.192Z,97899.71
2018-05-12T07:49:53.085Z,97903.22
2018-05-12T07:50:58.624Z,97897.41
2018-05-12T07:52:03.322Z,97900.80
2018-05-12T07:53:07.937Z,97894.96
2018-05-12T07:54:12.445Z,97899.48
2018-05-12T07:55:17.023Z,97892.09
2018-05-12T07:56:21.652Z,97895.33
2018-05-12T07:57:26.666Z,97893.62
2018-05-12T07:58:31.294Z,97893.45
2018-05-12T07:59:35.955Z,97889.47
2018-05-12T08:00:40.532Z,97888.94
2018-05-12T08:01:45.302Z,97885.78
2018-05-12T08:02:49.937Z,97887.24
2018-05-12T08:03:54.804Z,97888.81
2018-05-12T08:04:59.572Z,97884.00
2018-05-12T08:06:05.250Z,97885.95
2018-05-12T08:07:11.914Z,97889.20
2018-05-12T08:08:16.807Z,97888.28
2018-05-12T08:09:21.426Z,97886.61
2018-05-12T08:10:27.393Z,97897.22
2018-05-12T08:11:31.981Z,97895.47
2018-05-12T08:12:37.347Z,97888.91
2018-05-12T08:13:41.962Z,97893.55
2018-05-12T08:14:46.521Z,97896.40
2018-05-12T08:15:51.004Z,97895.32
2018-05-12T08:16:55.552Z,97890.56
2018-05-12T08:18:00.194Z,97894.53
2018-05-12T08:19:04.815Z,97893.59
2018-05-12T08:20:09.341Z,97890.40
2018-05-12T08:21:13.889Z,97894.52
2018-05-12T08:22:20.625Z,97888.74
2018-05-12T08:23:26.342Z,97888.08
2018-05-12T08:24:30.989Z,97884.59
2018-05-12T08:25:35.532Z,97879.12
2018-05-12T08:26:40.103Z,97880.95
2018-05-12T08:27:44.577Z,97885.42
2018-05-12T08:28:49.141Z,97878.94
2018-05-12T08:29:54.039Z,97882.66
2018-05-12T08:30:58.714Z,97884.13
2018-05-12T08:32:03.716Z,97882.89
2018-05-12T08:33:08.998Z,97881.50
2018-05-12T08:34:13.978Z,97879.05
2018-05-12T08:35:18.530Z,97881.82
2018-05-12T08:36:24.113Z,97880.17
2018-05-12T08:37:28.619Z,97876.13
2018-05-12T08:38:33.195Z,97881.16
2018-05-12T08:39:37.842Z,97885.05
2018-05-12T08:40:42.333Z,97877.55
2018-05-12T08:41:46.938Z,97880.05
2018-05-12T08:42:52.410Z,97868.92
2018-05-12T08:43:56.927Z,97877.08
2018-05-12T08:45:03.901Z,97873.94
2018-05-12T08:46:08.386Z,97872.83
2018-05-12T08:47:12.908Z,97875.84
2018-05-12T08:48:17.517Z,97867.84
2018-05-12T08:49:22.266Z,97873.20
2018-05-12T08:50:26.905Z,97869.41
2018-05-12T08:51:31.404Z,97865.08
2018-05-12T08:52:36.002Z,97871.33
2018-05-12T08:53:40.650Z,97871.92
2018-05-12T08:54:45.194Z,97871.12
2018-05-12T08:55:50.155Z,97870.59
2018-05-12T08:56:54.774Z,97874.44
2018-05-12T08:57:59.305Z,97875.16
2018-05-12T08:59:04.733Z,97870.55
2018-05-12T09:00:09.332Z,97872.47
2018-05-12T09:01:14.003Z,97864.59
2018-05-12T09:02:18.869Z,97869.59
2018-05-12T09:03:23.453Z,97863.88
2018-05-12T09:04:28.256Z,97856.09
2018-05-12T09:05:32.858Z,97864.94
2018-05-12T09:06:37.562Z,97855.12
2018-05-12T09:07:42.158Z,97854.92
2018-05-12T09:08:47.002Z,97849.52
2018-05-12T09:09:51.507Z,97851.61
2018-05-12T09:10:56.105Z,97848.83
2018-05-12T09:12:01.705Z,97851.97
2018-05-12T09:13:06.651Z,97850.50
2018-05-12T09:14:14.551Z,97850.38
2018-05-12T09:15:20.569Z,97848.11
2018-05-12T09:16:25.336Z,97849.59
2018-05-12T09:17:29.872Z,97853.20
2018-05-12T09:18:34.595Z,97854.77
2018-05-12T09:19:39.473Z,97851.57
2018-05-12T09:20:44.126Z,97858.61
2018-05-12T09:21:49.149Z,97852.31
2018-05-12T09:22:53.758Z,97855.33
2018-05-12T09:23:58.335Z,97857.77
2018-05-12T09:25:03.007Z,97857.55
2018-05-12T09:26:07.643Z,97855.48
2018-05-12T09:27:12.347Z,97850.14
2018-05-12T09:28:17.257Z,97849.31
2018-05-12T09:29:21.741Z,97850.92
2018-05-12T09:30:26.612Z,97847.36
2018-05-12T09:31:31.195Z,97844.86
2018-05-12T09:32:35.755Z,97846.39
2018-05-12T09:33:40.301Z,97844.32
2018-05-12T09:34:45.121Z,97838.47
2018-05-12T09:35:49.653Z,97842.49
2018-05-12T09:36:54.168Z,97844.53
2018-05-12T09:37:58.660Z,97845.48
2018-05-12T09:39:03.348Z,97840.68
2018-05-12T09:40:07.902Z,97841.48
2018-05-12T09:41:12.889Z,97841.69
2018-05-12T09:42:17.510Z,97837.11
2018-05-12T09:43:22.051Z,97841.92
2018-05-12T09:44:26.509Z,97835.61
2018-05-12T09:45:31.053Z,97842.45
2018-05-12T09:46:35.920Z,97833.15
2018-05-12T09:47:40.819Z,97836.97
2018-05-12T09:48:45.490Z,97841.68
2018-05-12T09:49:50.138Z,97841.92
2018-05-12T09:50:55.756Z,97828.94
2018-05-12T09:52:00.330Z,97828.16
2018-05-12T09:53:05.029Z,97833.33
2018-05-12T09:54:09.912Z,97825.25
2018-05-12T09:55:14.491Z,97833.67
2018-05-12T09:56:19.066Z,97832.06
2018-05-12T09:57:23.675Z,97828.95
2018-05-12T09:58:28.341Z,97832.65
2018-05-12T09:59:32.917Z,97820.50
2018-05-12T10:00:37.841Z,97820.96
2018-05-12T10:01:42.444Z,97823.92
2018-05-12T10:02:47.103Z,97816.28
2018-05-12T10:03:51.751Z,97815.74
2018-05-12T10:04:56.369Z,97810.28
2018-05-12T10:06:01.173Z,97815.80
2018-05-12T10:07:07.979Z,97811.55
2018-05-12T10:08:12.742Z,97820.34
2018-05-12T10:09:17.338Z,97823.28
2018-05-12T10:10:21.970Z,97819.77
2018-05-12T10:11:26.612Z,97814.56
2018-05-12T10:12:33.285Z,97815.88
2018-05-12T10:13:37.921Z,97814.56
2018-05-12T10:14:42.481Z,97813.92
2018-05-12T10:15:47.251Z,97811.23
2018-05-12T10:16:51.888Z,97814.11
2018-05-12T10:17:57.128Z,97809.03
2018-05-12T10:19:02.254Z,97814.83
2018-05-12T10:20:06.916Z,97803.82
2018-05-12T10:21:11.512Z,97811.26
2018-05-12T10:22:16.229Z,97804.67
2018-05-12T10:23:20.869Z,97815.20
2018-05-12T10:24:26.192Z,97803.74
2018-05-12T10:25:31.146Z,97803.06
2018-05-12T10:26:36.322Z,97807.41
2018-05-12T10:27:43.493Z,97798.94
2018-05-12T10:28:48.340Z,97800.30
2018-05-12T10:29:52.880Z,97807.93
2018-05-12T10:30:58.319Z,97802.89
2018-05-12T10:32:03.509Z,97803.05
2018-05-12T10:33:08.025Z,97796.25
2018-05-12T10:34:12.554Z,97797.44
2018-05-12T10:35:17.039Z,97789.98
2018-05-12T10:36:21.566Z,97791.17
2018-05-12T10:37:26.178Z,97790.50
2018-05-12T10:38:30.986Z,97790.19
2018-05-12T10:39:36.345Z,97787.50
2018-05-12T10:40:41.431Z,97786.39
2018-05-12T10:41:46.265Z,97783.12
2018-05-12T10:42:51.099Z,97781.42
2018-05-12T10:43:55.689Z,97787.34
2018-05-12T10:45:00.595Z,97788.62
2018-05-12T10:46:05.324Z,97788.28
2018-05-12T10:47:10.013Z,97783.81
2018-05-12T10:48:14.901Z,97784.39
2018-05-12T10:49:19.421Z,97781.23
2018-05-12T10:50:24.066Z,97782.22
2018-05-12T10:51:29.021Z,97779.34
2018-05-12T10:52:33.580Z,97780.80
2018-05-12T10:53:38.194Z,97776.81
2018-05-12T10:54:43.416Z,97776.08
2018-05-12T10:55:48.007Z,97768.64
2018-05-12T10:56:52.695Z,97776.50
2018-05-12T10:57:57.777Z,97768.08
2018-05-12T10:59:03.402Z,97771.08
2018-05-12T11:00:08.367Z,97775.14
2018-05-12T11:01:12.991Z,97768.72
2018-05-12T11:02:17.546Z,97766.72
2018-05-12T11:03:23.828Z,97764.82
2018-05-12T11:04:29.171Z,97765.52
2018-05-12T11:05:34.536Z,97764.84
2018-05-12T11:06:39.562Z,97770.13
2018-05-12T11:07:44.840Z,97768.00
2018-05-12T11:08:49.601Z,97760.88
2018-05-12T11:09:54.405Z,97764.09
2018-05-12T11:10:59.303Z,97759.13
2018-05-12T11:12:04.359Z,97758.64
2018-05-12T11:13:08.918Z,97754.63
2018-05-12T11:14:13.479Z,97748.48
2018-05-12T11:15:18.785Z,97749.04
2018-05-12T11:16:23.580Z,97755.74
2018-05-12T11:17:28.230Z,97753.92
2018-05-12T11:18:32.807Z,97745.44
2018-05-12T11:19:37.379Z,97741.77
2018-05-12T11:20:41.965Z,97744.64
2018-05-12T11:21:46.615Z,97750.38
2018-05-12T11:22:51.558Z,97742.32
2018-05-12T11:23:56.603Z,97748.14
2018-05-12T11:25:01.283Z,97745.69
2018-05-12T11:26:07.867Z,97743.07
2018-05-12T11:27:12.628Z,97738.34
2018-05-12T11:28:17.374Z,97749.80
2018-05-12T11:29:22.291Z,97744.80
2018-05-12T11:30:26.929Z,97748.08
2018-05-12T11:31:31.513Z,97738.75
2018-05-12T11:32:36.037Z,97733.61
2018-05-12T11:33:40.661Z,97729.87
2018-05-12T11:34:45.279Z,97744.41
2018-05-12T11:35:50.398Z,97740.64
2018-05-12T11:36:54.987Z,97732.34
2018-05-12T11:37:59.551Z,97733.80
2018-05-12T11:39:04.881Z,97735.91
2018-05-12T11:40:12.387Z,97735.98
2018-05-12T11:41:17.298Z,97730.69
2018-05-12T11:42:22.173Z,97741.94
2018-05-12T11:43:26.791Z,97733.70
2018-05-12T11:44:31.439Z,97728.40
2018-05-12T11:45:36.304Z,97729.38
2018-05-12T11:46:41.773Z,97727.81
2018-05-12T11:47:46.816Z,97715.70
2018-05-12T11:48:51.785Z,97716.28
2018-05-12T11:49:56.320Z,97720.80
2018-05-12T11:51:01.011Z,97723.34
2018-05-12T11:52:06.065Z,97715.73
2018-05-12T11:53:10.682Z,97714.55
2018-05-12T11:54:15.324Z,97711.90
2018-05-12T11:55:20.388Z,97715.92
2018-05-12T11:56:24.997Z,97712.45
2018-05-12T11:57:29.736Z,97716.47
2018-05-12T11:58:34.586Z,97708.36
2018-05-12T11:59:39.733Z,97713.28
2018-05-12T12:00:44.447Z,97711.56
2018-05-12T12:01:49.357Z,97707.30
2018-05-12T12:02:54.190Z,97711.45
2018-05-12T12:03:58.705Z,97708.70
2018-05-12T12:05:05.055Z,97719.58
2018-05-12T12:06:11.990Z,97710.55
2018-05-12T12:07:18.181Z,97710.32
2018-05-12T12:08:23.318Z,97701.45
2018-05-12T12:09:27.826Z,97709.68
2018-05-12T12:10:33.389Z,97708.16
2018-05-12T12:11:38.279Z,97702.38
2018-05-12T12:12:42.835Z,97700.38
2018-05-12T12:13:47.983Z,97701.65
2018-05-12T12:14:53.235Z,97700.63
2018-05-12T12:15:58.139Z,97703.26
2018-05-12T12:17:03.107Z,97699.85
2018-05-12T12:18:07.912Z,97706.87
2018-05-12T12:19:13.663Z,97706.31
2018-05-12T12:20:18.785Z,97708.75
2018-05-12T12:21:23.451Z,97703.33
2018-05-12T12:22:28.050Z,97695.09
2018-05-12T12:23:32.930Z,97711.36
2018-05-12T12:24:38.322Z,97704.13
2018-05-12T12:25:43.535Z,97697.27
2018-05-12T12:26:48.958Z,97696.67
2018-05-12T12:27:53.485Z,97694.63
2018-05-12T12:28:58.129Z,97700.58
2018-05-12T12:30:02.891Z,97686.68
2018-05-12T12:31:07.425Z,97698.95
2018-05-12T12:32:12.008Z,97703.19
2018-05-12T12:33:18.111Z,97692.98
2018-05-12T12:34:22.656Z,97690.56
2018-05-12T12:35:27.163Z,97695.94
2018-05-12T12:36:31.726Z,97694.96
2018-05-12T12:37:36.230Z,97698.82
2018-05-12T12:38:41.620Z,97695.02
2018-05-12T12:39:47.027Z,97684.53
2018-05-12T12:40:51.700Z,97695.19
2018-05-12T12:41:56.322Z,97689.22
2018-05-12T12:43:00.843Z,97686.03
2018-05-12T12:44:05.362Z,97680.28
2018-05-12T12:45:10.455Z,97682.72